sensor_id;sensor_type;location;lat;lon;timestamp;pressure;altitude;pressure_sealevel;temperature;humidity
35553;BME280;21656;46.054;13.614;2022-07-06T00:01:00;100691.19;;;23.50;78.12
35553;BME280;21656;46.054;13.614;2022-07-06T00:03:25;100691.63;;;23.53;78.34
35553;BME280;21656;46.054;13.614;2022-07-06T00:05:51;100692.69;;;23.52;78.82
35553;BME280;21656;46.054;13.614;2022-07-06T00:08:16;100695.78;;;23.43;78.15
35553;BME280;21656;46.054;13.614;2022-07-06T00:10:41;100694.66;;;23.72;78.00
35553;BME280;21656;46.054;13.614;2022-07-06T00:13:07;100690.03;;;23.72;77.90
35553;BME280;21656;46.054;13.614;2022-07-06T00:15:32;100694.19;;;23.62;78.40
35553;BME280;21656;46.054;13.614;2022-07-06T00:17:58;100689.19;;;23.37;79.30
35553;BME280;21656;46.054;13.614;2022-07-06T00:20:23;100698.31;;;23.44;78.97
35553;BME280;21656;46.054;13.614;2022-07-06T00:22:48;100708.88;;;23.41;78.82
35553;BME280;21656;46.054;13.614;2022-07-06T00:25:14;100715.50;;;23.53;79.48
35553;BME280;21656;46.054;13.614;2022-07-06T00:27:39;100718.19;;;23.46;78.78
35553;BME280;21656;46.054;13.614;2022-07-06T00:30:06;100711.63;;;23.41;79.36
35553;BME280;21656;46.054;13.614;2022-07-06T00:32:32;100721.25;;;23.58;78.65
35553;BME280;21656;46.054;13.614;2022-07-06T00:34:57;100712.69;;;23.46;78.69
35553;BME280;21656;46.054;13.614;2022-07-06T00:37:23;100721.78;;;23.47;78.96
35553;BME280;21656;46.054;13.614;2022-07-06T00:39:48;100724.28;;;23.42;77.81
35553;BME280;21656;46.054;13.614;2022-07-06T00:42:14;100728.84;;;23.28;78.93
35553;BME280;21656;46.054;13.614;2022-07-06T00:44:39;100735.59;;;23.04;80.00
35553;BME280;21656;46.054;13.614;2022-07-06T00:47:06;100741.88;;;23.19;80.32
35553;BME280;21656;46.054;13.614;2022-07-06T00:49:33;100741.53;;;23.29;79.49
35553;BME280;21656;46.054;13.614;2022-07-06T00:52:17;100743.00;;;23.25;80.26
35553;BME280;21656;46.054;13.614;2022-07-06T00:54:43;100736.28;;;23.34;79.05
35553;BME280;21656;46.054;13.614;2022-07-06T00:57:09;100728.84;;;23.28;79.85
35553;BME280;21656;46.054;13.614;2022-07-06T00:59:35;100740.28;;;23.31;79.67
35553;BME280;21656;46.054;13.614;2022-07-06T01:02:00;100742.63;;;23.34;79.78
35553;BME280;21656;46.054;13.614;2022-07-06T01:04:25;100752.75;;;23.34;78.82
35553;BME280;21656;46.054;13.614;2022-07-06T01:06:51;100759.50;;;23.31;79.59
35553;BME280;21656;46.054;13.614;2022-07-06T01:09:16;100779.25;;;23.42;79.47
35553;BME280;21656;46.054;13.614;2022-07-06T01:11:42;100774.09;;;23.32;80.14
35553;BME280;21656;46.054;13.614;2022-07-06T01:14:08;100781.41;;;23.46;79.17
35553;BME280;21656;46.054;13.614;2022-07-06T01:16:34;100775.75;;;23.54;78.78
35553;BME280;21656;46.054;13.614;2022-07-06T01:18:59;100780.56;;;23.46;78.16
35553;BME280;21656;46.054;13.614;2022-07-06T01:21:25;100762.81;;;23.20;78.67
35553;BME280;21656;46.054;13.614;2022-07-06T01:23:50;100768.19;;;23.07;78.82
35553;BME280;21656;46.054;13.614;2022-07-06T01:28:45;100770.13;;;23.13;79.78
35553;BME280;21656;46.054;13.614;2022-07-06T01:31:18;100775.72;;;22.83;80.29
35553;BME280;21656;46.054;13.614;2022-07-06T01:33:44;100761.38;;;23.03;80.60
35553;BME280;21656;46.054;13.614;2022-07-06T01:38:50;100767.84;;;23.17;77.43
35553;BME280;21656;46.054;13.614;2022-07-06T01:41:16;100754.41;;;23.28;76.85
35553;BME280;21656;46.054;13.614;2022-07-06T01:43:42;100750.34;;;23.24;75.87
35553;BME280;21656;46.054;13.614;2022-07-06T01:46:08;100748.13;;;23.34;75.28
35553;BME280;21656;46.054;13.614;2022-07-06T01:48:33;100746.63;;;23.32;75.57
35553;BME280;21656;46.054;13.614;2022-07-06T01:50:59;100762.13;;;23.40;74.76
35553;BME280;21656;46.054;13.614;2022-07-06T01:53:24;100754.47;;;23.07;73.99
35553;BME280;21656;46.054;13.614;2022-07-06T01:55:50;100747.31;;;23.12;75.74
35553;BME280;21656;46.054;13.614;2022-07-06T01:58:15;100749.00;;;23.13;75.50
35553;BME280;21656;46.054;13.614;2022-07-06T02:00:41;100742.53;;;23.21;75.03
35553;BME280;21656;46.054;13.614;2022-07-06T02:03:06;100743.19;;;23.23;75.27
35553;BME280;21656;46.054;13.614;2022-07-06T02:05:32;100736.84;;;23.23;74.21
35553;BME280;21656;46.054;13.614;2022-07-06T02:07:57;100738.34;;;23.25;74.34
35553;BME280;21656;46.054;13.614;2022-07-06T02:10:22;100724.59;;;23.25;74.37
35553;BME280;21656;46.054;13.614;2022-07-06T02:12:48;100723.84;;;23.10;72.58
35553;BME280;21656;46.054;13.614;2022-07-06T02:15:13;100720.03;;;23.11;73.56
35553;BME280;21656;46.054;13.614;2022-07-06T02:17:39;100721.16;;;22.95;73.38
35553;BME280;21656;46.054;13.614;2022-07-06T02:20:05;100729.66;;;22.57;73.77
35553;BME280;21656;46.054;13.614;2022-07-06T02:22:31;100725.31;;;22.48;75.74
35553;BME280;21656;46.054;13.614;2022-07-06T02:24:56;100733.97;;;22.66;75.97
35553;BME280;21656;46.054;13.614;2022-07-06T02:27:22;100721.66;;;22.84;76.13
35553;BME280;21656;46.054;13.614;2022-07-06T02:29:47;100722.72;;;22.83;74.53
35553;BME280;21656;46.054;13.614;2022-07-06T02:32:13;100717.75;;;22.93;75.01
35553;BME280;21656;46.054;13.614;2022-07-06T02:34:38;100732.97;;;22.96;74.49
35553;BME280;21656;46.054;13.614;2022-07-06T02:37:03;100728.53;;;22.94;73.77
35553;BME280;21656;46.054;13.614;2022-07-06T02:39:29;100725.91;;;22.86;74.20
35553;BME280;21656;46.054;13.614;2022-07-06T02:41:54;100733.31;;;22.86;73.98
35553;BME280;21656;46.054;13.614;2022-07-06T02:44:20;100738.13;;;22.84;74.15
35553;BME280;21656;46.054;13.614;2022-07-06T02:46:46;100741.41;;;22.72;74.13
35553;BME280;21656;46.054;13.614;2022-07-06T02:49:11;100731.84;;;22.68;75.38
35553;BME280;21656;46.054;13.614;2022-07-06T02:51:36;100724.63;;;22.82;75.75
35553;BME280;21656;46.054;13.614;2022-07-06T02:54:02;100734.75;;;22.82;74.65
35553;BME280;21656;46.054;13.614;2022-07-06T02:56:27;100739.34;;;22.75;75.03
35553;BME280;21656;46.054;13.614;2022-07-06T02:58:53;100738.59;;;22.87;74.46
35553;BME280;21656;46.054;13.614;2022-07-06T03:01:18;100739.19;;;22.83;74.77
35553;BME280;21656;46.054;13.614;2022-07-06T03:03:44;100746.56;;;22.97;74.39
35553;BME280;21656;46.054;13.614;2022-07-06T03:06:09;100747.47;;;23.04;73.57
35553;BME280;21656;46.054;13.614;2022-07-06T03:08:35;100739.16;;;22.98;73.40
35553;BME280;21656;46.054;13.614;2022-07-06T03:11:00;100754.06;;;23.10;73.53
35553;BME280;21656;46.054;13.614;2022-07-06T03:13:26;100748.56;;;23.10;73.18
35553;BME280;21656;46.054;13.614;2022-07-06T03:15:52;100752.50;;;23.01;73.76
35553;BME280;21656;46.054;13.614;2022-07-06T03:18:17;100741.06;;;22.97;74.41
35553;BME280;21656;46.054;13.614;2022-07-06T03:20:43;100737.63;;;22.95;74.73
35553;BME280;21656;46.054;13.614;2022-07-06T03:23:09;100741.50;;;23.01;75.01
35553;BME280;21656;46.054;13.614;2022-07-06T03:25:35;100739.59;;;23.01;73.68
35553;BME280;21656;46.054;13.614;2022-07-06T03:28:00;100735.59;;;23.04;73.50
35553;BME280;21656;46.054;13.614;2022-07-06T03:30:25;100732.72;;;22.90;73.66
35553;BME280;21656;46.054;13.614;2022-07-06T03:32:51;100731.03;;;22.89;74.26
35553;BME280;21656;46.054;13.614;2022-07-06T03:35:16;100741.78;;;22.91;73.97
35553;BME280;21656;46.054;13.614;2022-07-06T03:37:42;100740.66;;;23.00;73.58
35553;BME280;21656;46.054;13.614;2022-07-06T03:40:07;100742.81;;;23.05;73.71
35553;BME280;21656;46.054;13.614;2022-07-06T03:42:33;100752.88;;;22.98;73.79
35553;BME280;21656;46.054;13.614;2022-07-06T03:44:58;100750.56;;;22.80;73.55
35553;BME280;21656;46.054;13.614;2022-07-06T03:47:24;100755.28;;;22.64;74.78
35553;BME280;21656;46.054;13.614;2022-07-06T03:49:49;100756.38;;;22.70;75.94
35553;BME280;21656;46.054;13.614;2022-07-06T03:52:14;100755.81;;;22.75;75.97
35553;BME280;21656;46.054;13.614;2022-07-06T03:54:40;100752.47;;;22.79;75.04
35553;BME280;21656;46.054;13.614;2022-07-06T03:57:05;100751.59;;;22.57;75.36
35553;BME280;21656;46.054;13.614;2022-07-06T03:59:31;100751.59;;;22.57;75.41
35553;BME280;21656;46.054;13.614;2022-07-06T04:01:56;100752.31;;;22.66;75.85
35553;BME280;21656;46.054;13.614;2022-07-06T04:04:21;100755.59;;;22.55;76.31
35553;BME280;21656;46.054;13.614;2022-07-06T04:06:47;100750.94;;;22.55;75.76
35553;BME280;21656;46.054;13.614;2022-07-06T04:09:12;100750.22;;;22.46;76.67
35553;BME280;21656;46.054;13.614;2022-07-06T04:11:38;100751.78;;;22.19;77.67
35553;BME280;21656;46.054;13.614;2022-07-06T04:14:03;100754.41;;;22.27;78.10
35553;BME280;21656;46.054;13.614;2022-07-06T04:16:29;100753.47;;;22.20;78.52
35553;BME280;21656;46.054;13.614;2022-07-06T04:18:54;100756.72;;;22.24;78.59
35553;BME280;21656;46.054;13.614;2022-07-06T04:21:19;100753.94;;;22.09;78.60
35553;BME280;21656;46.054;13.614;2022-07-06T04:23:45;100758.75;;;22.07;79.73
35553;BME280;21656;46.054;13.614;2022-07-06T04:26:10;100762.56;;;22.06;78.47
35553;BME280;21656;46.054;13.614;2022-07-06T04:28:36;100762.75;;;22.04;79.41
35553;BME280;21656;46.054;13.614;2022-07-06T04:31:02;100753.19;;;21.56;81.23
35553;BME280;21656;46.054;13.614;2022-07-06T04:33:27;100750.75;;;21.76;80.74
35553;BME280;21656;46.054;13.614;2022-07-06T04:35:53;100758.97;;;21.76;80.08
35553;BME280;21656;46.054;13.614;2022-07-06T04:38:18;100753.22;;;21.85;80.04
35553;BME280;21656;46.054;13.614;2022-07-06T04:40:43;100753.78;;;21.81;79.70
35553;BME280;21656;46.054;13.614;2022-07-06T04:43:12;100755.75;;;22.02;80.58
35553;BME280;21656;46.054;13.614;2022-07-06T04:45:37;100749.59;;;21.85;80.75
35553;BME280;21656;46.054;13.614;2022-07-06T04:48:03;100756.53;;;21.96;79.76
35553;BME280;21656;46.054;13.614;2022-07-06T04:50:28;100759.25;;;21.81;80.28
35553;BME280;21656;46.054;13.614;2022-07-06T04:52:54;100755.97;;;21.85;80.96
35553;BME280;21656;46.054;13.614;2022-07-06T04:55:19;100768.78;;;22.00;80.46
35553;BME280;21656;46.054;13.614;2022-07-06T04:57:45;100768.78;;;22.15;79.87
35553;BME280;21656;46.054;13.614;2022-07-06T05:00:11;100770.41;;;22.24;78.79
35553;BME280;21656;46.054;13.614;2022-07-06T05:02:36;100771.72;;;22.13;77.45
35553;BME280;21656;46.054;13.614;2022-07-06T05:05:02;100771.44;;;22.08;78.87
35553;BME280;21656;46.054;13.614;2022-07-06T05:07:28;100774.38;;;22.06;79.47
35553;BME280;21656;46.054;13.614;2022-07-06T05:09:55;100774.38;;;21.77;79.95
35553;BME280;21656;46.054;13.614;2022-07-06T05:12:20;100770.69;;;21.70;80.74
35553;BME280;21656;46.054;13.614;2022-07-06T05:14:45;100772.69;;;21.76;79.71
35553;BME280;21656;46.054;13.614;2022-07-06T05:17:11;100769.00;;;21.69;80.46
35553;BME280;21656;46.054;13.614;2022-07-06T05:19:36;100774.09;;;21.86;79.51
35553;BME280;21656;46.054;13.614;2022-07-06T05:22:02;100777.13;;;22.06;79.27
35553;BME280;21656;46.054;13.614;2022-07-06T05:24:27;100772.97;;;21.96;78.50
35553;BME280;21656;46.054;13.614;2022-07-06T05:26:53;100778.44;;;22.11;77.67
35553;BME280;21656;46.054;13.614;2022-07-06T05:29:18;100779.88;;;22.21;78.18
35553;BME280;21656;46.054;13.614;2022-07-06T05:31:43;100781.28;;;22.32;77.29
35553;BME280;21656;46.054;13.614;2022-07-06T05:34:09;100779.84;;;22.51;76.93
35553;BME280;21656;46.054;13.614;2022-07-06T05:36:34;100773.41;;;22.44;76.16
35553;BME280;21656;46.054;13.614;2022-07-06T05:39:00;100787.41;;;22.49;76.56
35553;BME280;21656;46.054;13.614;2022-07-06T05:41:25;100772.34;;;22.45;73.42
35553;BME280;21656;46.054;13.614;2022-07-06T05:43:50;100776.13;;;22.59;74.64
35553;BME280;21656;46.054;13.614;2022-07-06T05:46:16;100781.88;;;22.64;74.33
35553;BME280;21656;46.054;13.614;2022-07-06T05:48:41;100779.84;;;22.72;74.83
35553;BME280;21656;46.054;13.614;2022-07-06T05:51:25;100780.69;;;22.73;72.61
35553;BME280;21656;46.054;13.614;2022-07-06T05:53:51;100783.66;;;22.93;72.95
35553;BME280;21656;46.054;13.614;2022-07-06T05:56:16;100789.72;;;22.88;72.34
35553;BME280;21656;46.054;13.614;2022-07-06T05:58:42;100781.75;;;22.93;72.93
35553;BME280;21656;46.054;13.614;2022-07-06T06:01:07;100776.34;;;23.00;73.22
35553;BME280;21656;46.054;13.614;2022-07-06T06:03:34;100771.94;;;22.99;71.47
35553;BME280;21656;46.054;13.614;2022-07-06T06:06:00;100773.88;;;23.05;72.06
35553;BME280;21656;46.054;13.614;2022-07-06T06:08:25;100770.47;;;23.03;71.08
35553;BME280;21656;46.054;13.614;2022-07-06T06:13:16;100775.22;;;23.16;70.75
35553;BME280;21656;46.054;13.614;2022-07-06T06:15:42;100781.19;;;23.20;70.62
35553;BME280;21656;46.054;13.614;2022-07-06T06:18:07;100779.34;;;23.27;71.33
35553;BME280;21656;46.054;13.614;2022-07-06T06:20:33;100777.63;;;23.26;69.20
35553;BME280;21656;46.054;13.614;2022-07-06T06:22:59;100777.91;;;23.31;70.55
35553;BME280;21656;46.054;13.614;2022-07-06T06:25:31;100774.75;;;23.34;69.81
35553;BME280;21656;46.054;13.614;2022-07-06T06:27:58;100785.63;;;23.42;70.37
35553;BME280;21656;46.054;13.614;2022-07-06T06:30:23;100782.50;;;23.52;70.57
35553;BME280;21656;46.054;13.614;2022-07-06T06:32:49;100783.41;;;23.59;69.76
35553;BME280;21656;46.054;13.614;2022-07-06T06:35:15;100783.00;;;23.62;67.88
35553;BME280;21656;46.054;13.614;2022-07-06T06:37:40;100783.22;;;23.67;68.01
35553;BME280;21656;46.054;13.614;2022-07-06T06:40:07;100781.13;;;23.69;68.74
35553;BME280;21656;46.054;13.614;2022-07-06T06:42:35;100779.97;;;23.78;68.39
35553;BME280;21656;46.054;13.614;2022-07-06T06:45:01;100780.41;;;23.82;67.14
35553;BME280;21656;46.054;13.614;2022-07-06T06:47:26;100768.81;;;23.87;67.00
35553;BME280;21656;46.054;13.614;2022-07-06T06:49:52;100773.94;;;23.96;67.30
35553;BME280;21656;46.054;13.614;2022-07-06T06:52:17;100772.09;;;24.04;66.43
35553;BME280;21656;46.054;13.614;2022-07-06T06:54:42;100773.16;;;24.09;66.51
35553;BME280;21656;46.054;13.614;2022-07-06T06:57:08;100770.22;;;24.17;66.12
35553;BME280;21656;46.054;13.614;2022-07-06T06:59:33;100779.38;;;24.25;67.51
35553;BME280;21656;46.054;13.614;2022-07-06T07:01:59;100773.69;;;24.33;67.08
35553;BME280;21656;46.054;13.614;2022-07-06T07:04:24;100772.88;;;24.39;65.99
35553;BME280;21656;46.054;13.614;2022-07-06T07:06:50;100767.88;;;24.49;65.82
35553;BME280;21656;46.054;13.614;2022-07-06T07:09:15;100762.59;;;24.61;65.47
35553;BME280;21656;46.054;13.614;2022-07-06T07:11:40;100760.09;;;24.73;65.06
35553;BME280;21656;46.054;13.614;2022-07-06T07:14:06;100763.28;;;24.83;65.31
35553;BME280;21656;46.054;13.614;2022-07-06T07:16:31;100762.88;;;24.93;64.73
35553;BME280;21656;46.054;13.614;2022-07-06T07:18:57;100758.44;;;25.05;64.31
35553;BME280;21656;46.054;13.614;2022-07-06T07:21:22;100756.53;;;25.05;62.49
35553;BME280;21656;46.054;13.614;2022-07-06T07:23:48;100752.72;;;25.13;64.03
35553;BME280;21656;46.054;13.614;2022-07-06T07:26:15;100750.63;;;25.22;63.69
35553;BME280;21656;46.054;13.614;2022-07-06T07:28:40;100746.84;;;25.29;62.60
35553;BME280;21656;46.054;13.614;2022-07-06T07:31:06;100753.81;;;25.39;61.89
35553;BME280;21656;46.054;13.614;2022-07-06T07:33:31;100740.03;;;25.45;60.79
35553;BME280;21656;46.054;13.614;2022-07-06T07:35:57;100747.88;;;25.55;60.50
35553;BME280;21656;46.054;13.614;2022-07-06T07:38:22;100746.34;;;25.59;61.37
35553;BME280;21656;46.054;13.614;2022-07-06T07:40:48;100734.25;;;25.67;60.53
35553;BME280;21656;46.054;13.614;2022-07-06T07:43:13;100739.31;;;25.77;59.22
35553;BME280;21656;46.054;13.614;2022-07-06T07:45:39;100736.56;;;25.90;61.04
35553;BME280;21656;46.054;13.614;2022-07-06T07:48:05;100731.88;;;25.97;60.06
35553;BME280;21656;46.054;13.614;2022-07-06T07:50:30;100730.97;;;26.10;60.02
35553;BME280;21656;46.054;13.614;2022-07-06T07:52:56;100732.44;;;26.19;58.21
35553;BME280;21656;46.054;13.614;2022-07-06T07:55:21;100728.75;;;26.32;56.99
35553;BME280;21656;46.054;13.614;2022-07-06T07:57:47;100729.78;;;26.37;55.85
35553;BME280;21656;46.054;13.614;2022-07-06T08:00:13;100714.28;;;26.36;55.70
35553;BME280;21656;46.054;13.614;2022-07-06T08:02:38;100710.44;;;26.44;56.08
35553;BME280;21656;46.054;13.614;2022-07-06T08:05:05;100715.50;;;26.54;56.88
35553;BME280;21656;46.054;13.614;2022-07-06T08:07:30;100718.38;;;26.66;56.41
35553;BME280;21656;46.054;13.614;2022-07-06T08:09:56;100708.03;;;26.86;49.57
35553;BME280;21656;46.054;13.614;2022-07-06T08:12:21;100724.47;;;27.06;44.17
35553;BME280;21656;46.054;13.614;2022-07-06T08:14:47;100718.88;;;27.19;43.90
35553;BME280;21656;46.054;13.614;2022-07-06T08:17:12;100725.13;;;27.33;44.44
35553;BME280;21656;46.054;13.614;2022-07-06T08:19:37;100722.91;;;27.42;46.49
35553;BME280;21656;46.054;13.614;2022-07-06T08:22:03;100724.94;;;27.53;43.86
35553;BME280;21656;46.054;13.614;2022-07-06T08:24:33;100728.00;;;27.63;43.22
35553;BME280;21656;46.054;13.614;2022-07-06T08:26:59;100722.78;;;27.74;38.19
35553;BME280;21656;46.054;13.614;2022-07-06T08:29:25;100728.44;;;27.85;39.94
35553;BME280;21656;46.054;13.614;2022-07-06T08:31:50;100727.72;;;27.90;40.18
35553;BME280;21656;46.054;13.614;2022-07-06T08:34:15;100725.13;;;27.95;40.69
35553;BME280;21656;46.054;13.614;2022-07-06T08:36:41;100732.50;;;28.01;40.75
35553;BME280;21656;46.054;13.614;2022-07-06T08:39:06;100728.88;;;28.19;38.98
35553;BME280;21656;46.054;13.614;2022-07-06T08:41:33;100731.78;;;28.24;38.68
35553;BME280;21656;46.054;13.614;2022-07-06T08:43:59;100734.16;;;28.39;37.10
35553;BME280;21656;46.054;13.614;2022-07-06T08:46:27;100735.84;;;28.40;36.01
35553;BME280;21656;46.054;13.614;2022-07-06T08:48:53;100733.69;;;28.42;37.13
35553;BME280;21656;46.054;13.614;2022-07-06T08:51:19;100732.22;;;28.40;37.29
35553;BME280;21656;46.054;13.614;2022-07-06T08:53:46;100732.75;;;28.48;36.28
35553;BME280;21656;46.054;13.614;2022-07-06T08:56:14;100736.53;;;28.54;38.33
35553;BME280;21656;46.054;13.614;2022-07-06T08:58:39;100733.28;;;28.57;35.72
35553;BME280;21656;46.054;13.614;2022-07-06T09:01:11;100733.56;;;28.67;36.24
35553;BME280;21656;46.054;13.614;2022-07-06T09:03:41;100734.69;;;28.78;35.81
35553;BME280;21656;46.054;13.614;2022-07-06T09:06:07;100739.50;;;28.83;35.90
35553;BME280;21656;46.054;13.614;2022-07-06T09:08:32;100731.44;;;28.81;35.90
35553;BME280;21656;46.054;13.614;2022-07-06T09:10:58;100737.72;;;28.88;34.38
35553;BME280;21656;46.054;13.614;2022-07-06T09:13:23;100737.72;;;28.88;32.53
35553;BME280;21656;46.054;13.614;2022-07-06T09:15:49;100733.63;;;28.91;32.19
35553;BME280;21656;46.054;13.614;2022-07-06T09:18:14;100735.91;;;28.94;33.31
35553;BME280;21656;46.054;13.614;2022-07-06T09:20:41;100733.22;;;29.06;33.94
35553;BME280;21656;46.054;13.614;2022-07-06T09:23:06;100729.16;;;29.20;33.87
35553;BME280;21656;46.054;13.614;2022-07-06T09:25:33;100722.63;;;29.26;33.39
35553;BME280;21656;46.054;13.614;2022-07-06T09:28:00;100722.63;;;29.26;33.97
35553;BME280;21656;46.054;13.614;2022-07-06T09:30:26;100716.84;;;29.39;33.77
35553;BME280;21656;46.054;13.614;2022-07-06T09:32:54;100713.34;;;29.44;32.49
35553;BME280;21656;46.054;13.614;2022-07-06T09:35:37;100729.25;;;29.49;33.56
35553;BME280;21656;46.054;13.614;2022-07-06T09:40:37;100720.69;;;29.62;32.21
35553;BME280;21656;46.054;13.614;2022-07-06T09:43:22;100724.31;;;29.51;30.14
35553;BME280;21656;46.054;13.614;2022-07-06T09:45:57;100723.34;;;29.57;32.80
35553;BME280;21656;46.054;13.614;2022-07-06T09:48:25;100720.69;;;29.62;30.71
35553;BME280;21656;46.054;13.614;2022-07-06T09:50:52;100730.88;;;29.68;30.24
35553;BME280;21656;46.054;13.614;2022-07-06T09:53:20;100720.00;;;29.67;28.91
35553;BME280;21656;46.054;13.614;2022-07-06T09:55:54;100722.88;;;29.72;30.12
35553;BME280;21656;46.054;13.614;2022-07-06T09:58:21;100716.84;;;29.87;29.16
35553;BME280;21656;46.054;13.614;2022-07-06T10:00:48;100722.88;;;29.84;29.01
35553;BME280;21656;46.054;13.614;2022-07-06T10:03:15;100717.56;;;29.82;29.06
35553;BME280;21656;46.054;13.614;2022-07-06T10:05:43;100712.00;;;29.94;30.14
35553;BME280;21656;46.054;13.614;2022-07-06T10:08:09;100708.94;;;29.95;30.50
35553;BME280;21656;46.054;13.614;2022-07-06T10:10:36;100708.44;;;30.10;29.60
35553;BME280;21656;46.054;13.614;2022-07-06T10:13:02;100703.00;;;30.15;29.31
35553;BME280;21656;46.054;13.614;2022-07-06T10:15:30;100702.25;;;30.32;29.51
35553;BME280;21656;46.054;13.614;2022-07-06T10:18:00;100714.19;;;30.32;30.34
35553;BME280;21656;46.054;13.614;2022-07-06T10:20:31;100713.69;;;30.35;29.48
35553;BME280;21656;46.054;13.614;2022-07-06T10:23:00;100711.09;;;30.29;28.55
35553;BME280;21656;46.054;13.614;2022-07-06T10:25:26;100712.06;;;30.51;28.94
35553;BME280;21656;46.054;13.614;2022-07-06T10:27:54;100691.66;;;30.45;28.73
35553;BME280;21656;46.054;13.614;2022-07-06T10:30:21;100684.38;;;30.73;29.67
35553;BME280;21656;46.054;13.614;2022-07-06T10:32:48;100692.03;;;30.66;28.82
35553;BME280;21656;46.054;13.614;2022-07-06T10:35:15;100685.00;;;30.75;28.35
35553;BME280;21656;46.054;13.614;2022-07-06T10:37:41;100680.09;;;30.65;29.00
35553;BME280;21656;46.054;13.614;2022-07-06T10:40:07;100682.19;;;30.87;28.17
35553;BME280;21656;46.054;13.614;2022-07-06T10:42:59;100680.47;;;31.20;28.12
35553;BME280;21656;46.054;13.614;2022-07-06T10:50:46;100678.56;;;31.59;27.41
35553;BME280;21656;46.054;13.614;2022-07-06T10:53:16;100681.50;;;31.69;26.44
35553;BME280;21656;46.054;13.614;2022-07-06T10:55:45;100675.03;;;31.64;26.69
35553;BME280;21656;46.054;13.614;2022-07-06T10:58:15;100674.69;;;31.82;27.37
35553;BME280;21656;46.054;13.614;2022-07-06T11:00:59;100670.53;;;32.02;28.54
35553;BME280;21656;46.054;13.614;2022-07-06T11:06:01;100674.72;;;32.04;30.13
35553;BME280;21656;46.054;13.614;2022-07-06T11:09:02;100669.53;;;31.69;29.42
35553;BME280;21656;46.054;13.614;2022-07-06T11:14:05;100658.00;;;31.60;29.88
35553;BME280;21656;46.054;13.614;2022-07-06T11:17:21;100658.56;;;31.62;29.40
35553;BME280;21656;46.054;13.614;2022-07-06T11:19:26;100661.06;;;31.42;29.70
35553;BME280;21656;46.054;13.614;2022-07-06T11:24:25;100654.84;;;30.84;30.18
35553;BME280;21656;46.054;13.614;2022-07-06T11:26:52;100660.41;;;30.67;29.92
35553;BME280;21656;46.054;13.614;2022-07-06T11:29:20;100658.28;;;30.57;30.69
35553;BME280;21656;46.054;13.614;2022-07-06T11:31:55;100660.03;;;30.47;30.75
35553;BME280;21656;46.054;13.614;2022-07-06T11:34:26;100661.56;;;30.71;30.60
35553;BME280;21656;46.054;13.614;2022-07-06T11:36:59;100660.50;;;30.89;30.10
35553;BME280;21656;46.054;13.614;2022-07-06T11:39:29;100656.88;;;31.39;29.07
35553;BME280;21656;46.054;13.614;2022-07-06T11:41:55;100658.38;;;31.69;28.41
35553;BME280;21656;46.054;13.614;2022-07-06T11:44:21;100654.00;;;31.73;30.05
35553;BME280;21656;46.054;13.614;2022-07-06T11:46:47;100648.69;;;31.71;28.95
35553;BME280;21656;46.054;13.614;2022-07-06T11:49:13;100649.34;;;31.79;29.72
35553;BME280;21656;46.054;13.614;2022-07-06T11:51:40;100653.75;;;31.97;29.12
35553;BME280;21656;46.054;13.614;2022-07-06T11:54:12;100646.78;;;31.94;28.86
35553;BME280;21656;46.054;13.614;2022-07-06T11:56:46;100647.31;;;31.74;29.13
35553;BME280;21656;46.054;13.614;2022-07-06T11:59:12;100638.56;;;31.43;29.73
35553;BME280;21656;46.054;13.614;2022-07-06T12:01:37;100638.84;;;31.25;30.18
35553;BME280;21656;46.054;13.614;2022-07-06T12:04:07;100639.53;;;30.98;31.68
35553;BME280;21656;46.054;13.614;2022-07-06T12:06:32;100633.22;;;30.86;31.41
35553;BME280;21656;46.054;13.614;2022-07-06T12:08:59;100629.00;;;30.66;31.63
35553;BME280;21656;46.054;13.614;2022-07-06T12:11:30;100618.09;;;30.48;32.92
35553;BME280;21656;46.054;13.614;2022-07-06T12:13:57;100627.69;;;30.40;32.02
35553;BME280;21656;46.054;13.614;2022-07-06T12:16:33;100625.84;;;30.17;32.50
35553;BME280;21656;46.054;13.614;2022-07-06T12:19:00;100629.97;;;30.15;33.23
35553;BME280;21656;46.054;13.614;2022-07-06T12:21:26;100628.44;;;30.36;32.19
35553;BME280;21656;46.054;13.614;2022-07-06T12:23:53;100625.13;;;30.67;31.55
35553;BME280;21656;46.054;13.614;2022-07-06T12:26:21;100626.06;;;30.90;31.94
35553;BME280;21656;46.054;13.614;2022-07-06T12:29:05;100620.66;;;31.00;29.89
35553;BME280;21656;46.054;13.614;2022-07-06T12:31:53;100623.44;;;31.56;29.93
35553;BME280;21656;46.054;13.614;2022-07-06T12:34:22;100625.31;;;31.50;29.04
35553;BME280;21656;46.054;13.614;2022-07-06T12:36:50;100620.28;;;31.47;28.71
35553;BME280;21656;46.054;13.614;2022-07-06T12:39:18;100620.41;;;31.58;29.24
35553;BME280;21656;46.054;13.614;2022-07-06T12:41:53;100612.78;;;31.48;29.32
35553;BME280;21656;46.054;13.614;2022-07-06T12:44:24;100607.03;;;31.38;30.51
35553;BME280;21656;46.054;13.614;2022-07-06T12:46:56;100604.34;;;31.26;32.63
35553;BME280;21656;46.054;13.614;2022-07-06T12:49:26;100603.84;;;31.29;31.28
35553;BME280;21656;46.054;13.614;2022-07-06T12:54:21;100612.56;;;31.16;31.98
35553;BME280;21656;46.054;13.614;2022-07-06T12:56:58;100602.63;;;31.03;31.45
35553;BME280;21656;46.054;13.614;2022-07-06T12:59:24;100598.09;;;30.80;33.16
35553;BME280;21656;46.054;13.614;2022-07-06T13:01:49;100599.59;;;30.71;31.44
35553;BME280;21656;46.054;13.614;2022-07-06T13:04:21;100597.75;;;30.59;32.65